createdAt,value
2017-12-16T05:00:42.062Z,0
2017-12-16T05:01:07.560Z,0
2017-12-16T05:01:33.111Z,0
2017-12-16T05:01:58.594Z,0
2017-12-16T05:02:24.083Z,0
2017-12-16T05:02:49.584Z,0
2017-12-16T05:03:15.096Z,0
2017-12-16T05:03:40.604Z,0
2017-12-16T05:04:06.126Z,0
2017-12-16T05:04:31.632Z,0
2017-12-16T05:04:57.125Z,0
2017-12-16T05:05:22.614Z,0
2017-12-16T05:05:48.129Z,0
2017-12-16T05:06:13.623Z,0
2017-12-16T05:06:39.097Z,0
2017-12-16T05:07:04.602Z,0
2017-12-16T05:07:30.085Z,0
2017-12-16T05:07:55.576Z,0
2017-12-16T05:08:21.071Z,0
2017-12-16T05:08:46.552Z,0
2017-12-16T05:09:12.025Z,0
2017-12-16T05:09:37.537Z,0
2017-12-16T05:10:03.011Z,0
2017-12-16T05:10:28.486Z,0
2017-12-16T05:10:53.986Z,0
2017-12-16T05:11:19.489Z,0
2017-12-16T05:11:44.977Z,0
2017-12-16T05:12:10.476Z,0
2017-12-16T05:12:35.991Z,0
2017-12-16T05:13:01.525Z,0
2017-12-16T05:13:27.031Z,0
2017-12-16T05:13:52.547Z,0
2017-12-16T05:14:18.028Z,0
2017-12-16T05:14:43.558Z,0
2017-12-16T05:15:09.024Z,0
2017-12-16T05:15:34.517Z,0
2017-12-16T05:16:00.018Z,0
2017-12-16T05:16:25.517Z,0
2017-12-16T05:16:51.010Z,0
2017-12-16T05:17:16.511Z,0
2017-12-16T05:17:42.020Z,0
2017-12-16T05:18:07.535Z,0
2017-12-16T05:18:33.073Z,0
2017-12-16T05:18:58.590Z,0
2017-12-16T05:19:24.122Z,0
2017-12-16T05:19:49.676Z,0
2017-12-16T05:20:15.175Z,0
2017-12-16T05:20:40.666Z,0
2017-12-16T05:21:06.138Z,0
2017-12-16T05:21:31.646Z,0
2017-12-16T05:21:57.118Z,0
2017-12-16T05:23:10.953Z,0
2017-12-16T05:23:36.448Z,0
2017-12-16T05:24:01.930Z,0
2017-12-16T05:24:27.438Z,0
2017-12-16T05:24:52.933Z,0
2017-12-16T05:25:18.427Z,0
2017-12-16T05:25:43.903Z,0
2017-12-16T05:26:09.350Z,0
2017-12-16T05:26:34.874Z,0
2017-12-16T05:27:00.372Z,0
2017-12-16T05:27:25.870Z,0
2017-12-16T05:27:51.361Z,0
2017-12-16T05:28:16.868Z,0
2017-12-16T05:28:42.363Z,0
2017-12-16T05:29:07.861Z,0
2017-12-16T05:29:33.366Z,0
2017-12-16T05:29:58.840Z,0
2017-12-16T05:30:24.319Z,0
2017-12-16T05:30:49.797Z,0
2017-12-16T05:31:15.295Z,0
2017-12-16T05:31:40.761Z,0
2017-12-16T05:32:49.449Z,0
2017-12-16T05:33:14.955Z,0
2017-12-16T05:33:40.448Z,0
2017-12-16T05:34:05.915Z,0
2017-12-16T05:34:31.439Z,0
2017-12-16T05:34:56.943Z,0
2017-12-16T05:35:22.436Z,0
2017-12-16T05:35:47.959Z,0
2017-12-16T05:36:13.434Z,0
2017-12-16T05:36:38.932Z,0
2017-12-16T05:37:04.415Z,0
2017-12-16T05:37:29.918Z,0
2017-12-16T05:37:55.438Z,0
2017-12-16T05:38:20.926Z,0
2017-12-16T05:38:46.424Z,0
2017-12-16T05:40:05.364Z,0
2017-12-16T05:40:30.858Z,0
2017-12-16T05:40:56.401Z,0
2017-12-16T05:41:21.840Z,0
2017-12-16T05:41:47.348Z,0
2017-12-16T05:42:12.841Z,0
2017-12-16T05:42:38.353Z,0
2017-12-16T05:43:03.870Z,0
2017-12-16T05:43:29.356Z,0
2017-12-16T05:43:54.844Z,0
2017-12-16T05:44:20.351Z,0
2017-12-16T05:44:45.828Z,0
2017-12-16T05:45:11.298Z,0
2017-12-16T05:45:36.815Z,0
2017-12-16T05:46:02.297Z,0
2017-12-16T05:46:27.775Z,0
2017-12-16T05:46:53.284Z,0
2017-12-16T05:47:18.779Z,0
2017-12-16T05:47:44.270Z,0
2017-12-16T05:48:09.760Z,0
2017-12-16T05:48:35.237Z,0
2017-12-16T05:49:00.699Z,0
2017-12-16T05:49:26.208Z,0
2017-12-16T05:49:51.693Z,0
2017-12-16T05:50:17.189Z,0
2017-12-16T05:50:42.718Z,0
2017-12-16T05:51:08.176Z,0
2017-12-16T05:51:33.672Z,0
2017-12-16T05:51:59.170Z,0
2017-12-16T05:52:24.677Z,0
2017-12-16T05:52:50.160Z,0
2017-12-16T05:53:15.647Z,0
2017-12-16T05:53:41.129Z,0
2017-12-16T05:54:06.629Z,0
2017-12-16T05:54:32.122Z,0
2017-12-16T05:54:57.651Z,0
2017-12-16T05:56:06.355Z,0
2017-12-16T05:56:31.843Z,0
2017-12-16T05:56:57.340Z,0
2017-12-16T05:57:22.840Z,0
2017-12-16T05:57:48.349Z,0
2017-12-16T05:58:13.861Z,0
2017-12-16T05:58:39.330Z,0
2017-12-16T05:59:04.821Z,0
2017-12-16T05:59:30.342Z,0
2017-12-16T05:59:55.837Z,0
2017-12-16T06:00:21.317Z,0
2017-12-16T06:00:46.817Z,0
2017-12-16T06:01:12.323Z,0
2017-12-16T06:01:37.833Z,0
2017-12-16T06:02:03.307Z,0
2017-12-16T06:02:28.792Z,0
2017-12-16T06:03:52.799Z,0
2017-12-16T06:04:18.299Z,0
2017-12-16T06:04:43.792Z,0
2017-12-16T06:05:09.298Z,0
2017-12-16T06:05:34.797Z,0
2017-12-16T06:06:00.288Z,0
2017-12-16T06:06:25.795Z,0
2017-12-16T06:06:51.275Z,0
2017-12-16T06:07:16.819Z,0
2017-12-16T06:07:42.289Z,0
2017-12-16T06:08:07.785Z,0
2017-12-16T06:08:33.260Z,0
2017-12-16T06:08:58.751Z,0
2017-12-16T06:09:24.259Z,0
2017-12-16T06:10:32.963Z,0
2017-12-16T06:10:58.469Z,0
2017-12-16T06:11:23.969Z,0
2017-12-16T06:11:49.449Z,0
2017-12-16T06:12:14.954Z,0
2017-12-16T06:12:40.472Z,0
2017-12-16T06:13:05.967Z,0
2017-12-16T06:13:31.485Z,0
2017-12-16T06:13:57.002Z,0
2017-12-16T06:14:22.469Z,0
2017-12-16T06:14:47.961Z,0
2017-12-16T06:15:13.447Z,0
2017-12-16T06:15:38.929Z,0
2017-12-16T06:16:04.432Z,0
2017-12-16T06:16:29.911Z,0
2017-12-16T06:16:55.420Z,0
2017-12-16T06:17:20.918Z,0
2017-12-16T06:17:46.407Z,0
2017-12-16T06:18:50.006Z,0
2017-12-16T06:19:15.503Z,0
2017-12-16T06:19:40.984Z,0
2017-12-16T06:20:06.494Z,0
2017-12-16T06:20:32.019Z,0
2017-12-16T06:20:57.531Z,0
2017-12-16T06:21:23.036Z,0
2017-12-16T06:21:48.509Z,0
2017-12-16T06:22:14.001Z,0
2017-12-16T06:22:39.504Z,0
2017-12-16T06:23:04.993Z,0
2017-12-16T06:23:30.476Z,0
2017-12-16T06:23:56.002Z,0
2017-12-16T06:24:21.519Z,0
2017-12-16T06:24:46.993Z,0
2017-12-16T06:25:12.514Z,0
2017-12-16T06:25:38.012Z,0
2017-12-16T06:26:03.498Z,0
2017-12-16T06:26:29.043Z,0
2017-12-16T06:26:54.567Z,0
2017-12-16T06:27:20.059Z,0
2017-12-16T06:27:45.524Z,0
2017-12-16T06:28:10.991Z,0
2017-12-16T06:28:36.485Z,0
2017-12-16T06:29:01.986Z,0
2017-12-16T06:29:27.482Z,0
2017-12-16T06:29:52.990Z,0
2017-12-16T06:30:18.469Z,0
2017-12-16T06:30:43.962Z,0
2017-12-16T06:31:57.757Z,0
2017-12-16T06:32:23.253Z,0
2017-12-16T06:32:48.760Z,0
2017-12-16T06:34:12.765Z,0
2017-12-16T06:34:38.277Z,0
2017-12-16T06:35:03.786Z,0
2017-12-16T06:35:29.273Z,0
2017-12-16T06:35:54.776Z,0
2017-12-16T06:36:20.216Z,0
2017-12-16T06:36:45.731Z,0
2017-12-16T06:37:11.265Z,0
2017-12-16T06:37:36.754Z,0
2017-12-16T06:38:02.247Z,0
2017-12-16T06:38:27.743Z,0
2017-12-16T06:38:53.252Z,0
2017-12-16T06:39:18.773Z,0
2017-12-16T06:39:44.256Z,0
2017-12-16T06:40:09.772Z,0
2017-12-16T06:40:35.270Z,0
2017-12-16T06:41:00.738Z,0
2017-12-16T06:41:26.228Z,0
2017-12-16T06:41:51.698Z,0
2017-12-16T06:42:17.200Z,0
2017-12-16T06:42:42.714Z,0
2017-12-16T06:43:08.167Z,0
2017-12-16T06:43:33.626Z,0
2017-12-16T06:43:59.106Z,0
2017-12-16T06:44:24.609Z,0
2017-12-16T06:44:50.113Z,0
2017-12-16T06:45:15.599Z,0
2017-12-16T06:45:41.101Z,0
2017-12-16T06:46:06.603Z,0
2017-12-16T06:46:32.102Z,0
2017-12-16T06:46:57.595Z,0
2017-12-16T06:47:23.112Z,0
2017-12-16T06:47:48.592Z,0
2017-12-16T06:48:14.103Z,0
2017-12-16T06:48:39.634Z,0
2017-12-16T06:49:05.124Z,0
2017-12-16T06:49:30.633Z,0
2017-12-16T06:49:56.118Z,0
2017-12-16T06:50:21.583Z,0
2017-12-16T06:50:47.073Z,0
2017-12-16T06:51:12.554Z,0
2017-12-16T06:51:38.065Z,0
2017-12-16T06:52:03.562Z,0
2017-12-16T06:52:29.068Z,0
2017-12-16T06:52:54.569Z,0
2017-12-16T06:53:20.067Z,0
2017-12-16T06:53:45.560Z,0
2017-12-16T06:54:11.031Z,0
2017-12-16T06:54:36.526Z,0
2017-12-16T06:55:02.001Z,0
2017-12-16T06:55:27.498Z,0
2017-12-16T06:55:52.980Z,4
2017-12-16T06:56:18.492Z,4
2017-12-16T06:56:43.990Z,4
2017-12-16T06:57:09.500Z,4
2017-12-16T06:57:34.987Z,4
2017-12-16T06:58:00.476Z,4
2017-12-16T06:59:24.450Z,0
2017-12-16T06:59:49.952Z,0
2017-12-16T07:00:15.467Z,4
2017-12-16T07:00:40.969Z,4
2017-12-16T07:01:06.473Z,4
2017-12-16T07:01:31.937Z,4
2017-12-16T07:01:57.428Z,4
2017-12-16T07:03:06.125Z,8
2017-12-16T07:03:31.608Z,4
2017-12-16T07:03:57.090Z,4
2017-12-16T07:04:22.576Z,8
2017-12-16T07:04:48.076Z,4
2017-12-16T07:05:13.590Z,8
2017-12-16T07:05:39.084Z,8
2017-12-16T07:06:04.584Z,8
2017-12-16T07:06:30.081Z,12
2017-12-16T07:06:55.564Z,8
2017-12-16T07:07:21.076Z,12
2017-12-16T07:07:46.599Z,8
2017-12-16T07:08:12.032Z,12
2017-12-16T07:08:37.551Z,12
2017-12-16T07:09:03.063Z,12
2017-12-16T07:09:28.518Z,12
2017-12-16T07:09:54.005Z,12
2017-12-16T07:10:19.473Z,16
2017-12-16T07:10:44.954Z,12
2017-12-16T07:11:10.443Z,16
2017-12-16T07:11:35.912Z,16
2017-12-16T07:12:01.389Z,20
2017-12-16T07:12:26.892Z,20
2017-12-16T07:12:52.344Z,20
2017-12-16T07:13:17.848Z,24
2017-12-16T07:13:43.327Z,24
2017-12-16T07:14:08.845Z,24
2017-12-16T07:14:34.340Z,24
2017-12-16T07:14:59.848Z,28
2017-12-16T07:15:25.294Z,28
2017-12-16T07:15:50.814Z,32
2017-12-16T07:16:16.312Z,32
2017-12-16T07:16:41.732Z,32
2017-12-16T07:17:07.189Z,32
2017-12-16T07:17:32.674Z,36
2017-12-16T07:17:58.130Z,40
2017-12-16T07:18:23.611Z,40
2017-12-16T07:18:49.121Z,44
2017-12-16T07:19:14.625Z,44
2017-12-16T07:19:40.078Z,44
2017-12-16T07:20:05.612Z,48
2017-12-16T07:20:31.104Z,52
2017-12-16T07:20:56.596Z,56
2017-12-16T07:21:22.055Z,60
2017-12-16T07:21:47.579Z,64
2017-12-16T07:23:01.371Z,72
2017-12-16T07:23:26.859Z,72
2017-12-16T07:23:52.354Z,76
2017-12-16T07:24:17.847Z,80
2017-12-16T07:24:43.324Z,80
2017-12-16T07:25:08.849Z,84
2017-12-16T07:25:34.345Z,84
2017-12-16T07:25:59.846Z,88
2017-12-16T07:26:25.314Z,92
2017-12-16T07:26:50.798Z,92
2017-12-16T07:27:16.306Z,96
2017-12-16T07:27:41.801Z,100
2017-12-16T07:28:07.291Z,104
2017-12-16T07:28:32.761Z,112
2017-12-16T07:28:58.225Z,112
2017-12-16T07:29:23.724Z,116
2017-12-16T07:29:49.253Z,124
2017-12-16T07:30:14.717Z,124
2017-12-16T07:30:40.226Z,128
2017-12-16T07:31:05.710Z,136
2017-12-16T07:31:31.164Z,136
2017-12-16T07:31:56.676Z,144
2017-12-16T07:32:22.155Z,148
2017-12-16T07:32:47.651Z,152
2017-12-16T07:33:13.162Z,156
2017-12-16T07:34:37.412Z,176
2017-12-16T07:35:02.905Z,176
2017-12-16T07:35:28.380Z,180
2017-12-16T07:35:53.882Z,188
2017-12-16T07:36:19.384Z,192
2017-12-16T07:36:44.869Z,196
2017-12-16T07:37:10.342Z,208
2017-12-16T07:37:35.835Z,212
2017-12-16T07:38:01.300Z,220
2017-12-16T07:38:26.801Z,224
2017-12-16T07:38:52.286Z,228
2017-12-16T07:39:17.748Z,236
2017-12-16T07:39:43.259Z,244
2017-12-16T07:40:08.755Z,248
2017-12-16T07:40:34.258Z,256
2017-12-16T07:40:59.712Z,260
2017-12-16T07:41:25.226Z,268
2017-12-16T07:41:50.733Z,272
2017-12-16T07:42:16.212Z,280
2017-12-16T07:42:41.695Z,288
2017-12-16T07:43:07.197Z,296
2017-12-16T07:43:32.720Z,304
2017-12-16T07:43:58.199Z,312
2017-12-16T07:45:06.883Z,336
2017-12-16T07:45:32.366Z,348
2017-12-16T07:45:57.878Z,356
2017-12-16T07:46:23.388Z,364
2017-12-16T07:46:48.893Z,372
2017-12-16T07:47:14.341Z,380
2017-12-16T07:47:39.847Z,384
2017-12-16T07:48:05.341Z,392
2017-12-16T07:49:19.109Z,416
2017-12-16T07:49:44.601Z,424
2017-12-16T07:50:10.088Z,428
2017-12-16T07:50:35.573Z,432
2017-12-16T07:51:01.061Z,436
2017-12-16T07:51:26.547Z,440
2017-12-16T07:51:52.050Z,448
2017-12-16T07:52:17.543Z,456
2017-12-16T07:52:43.009Z,464
2017-12-16T07:53:08.477Z,472
2017-12-16T07:53:33.985Z,480
2017-12-16T07:53:59.490Z,484
2017-12-16T07:54:24.963Z,488
2017-12-16T07:54:50.428Z,500
2017-12-16T07:55:15.923Z,508
2017-12-16T07:55:41.411Z,524
2017-12-16T07:56:06.915Z,536
2017-12-16T07:56:32.404Z,544
2017-12-16T07:56:57.867Z,552
2017-12-16T07:57:23.387Z,556
2017-12-16T07:57:48.884Z,568
2017-12-16T07:58:14.363Z,572
2017-12-16T07:58:39.847Z,584
2017-12-16T07:59:05.354Z,592
2017-12-16T07:59:30.822Z,604
2017-12-16T07:59:56.285Z,616
2017-12-16T08:00:21.794Z,624
2017-12-16T08:00:47.325Z,636
2017-12-16T08:01:12.774Z,652
2017-12-16T08:01:38.226Z,672
2017-12-16T08:02:03.716Z,688
2017-12-16T08:02:29.199Z,716
2017-12-16T08:02:54.673Z,740
2017-12-16T08:03:20.155Z,756
2017-12-16T08:03:45.639Z,772
2017-12-16T08:04:11.189Z,780
2017-12-16T08:04:36.678Z,784
2017-12-16T08:05:02.157Z,792
2017-12-16T08:05:27.652Z,788
2017-12-16T08:05:53.155Z,780
2017-12-16T08:06:18.649Z,772
2017-12-16T08:06:44.147Z,760
2017-12-16T08:07:09.646Z,760
2017-12-16T08:07:35.145Z,764
2017-12-16T08:08:00.624Z,780
2017-12-16T08:08:26.094Z,800
2017-12-16T08:08:51.623Z,816
2017-12-16T08:10:10.536Z,864
2017-12-16T08:10:35.991Z,896
2017-12-16T08:11:01.487Z,924
2017-12-16T08:11:26.967Z,948
2017-12-16T08:11:52.443Z,976
2017-12-16T08:12:17.916Z,1012
2017-12-16T08:12:43.439Z,1072
2017-12-16T08:13:08.988Z,1124
2017-12-16T08:13:34.476Z,1184
2017-12-16T08:13:59.958Z,1196
2017-12-16T08:14:25.463Z,1200
2017-12-16T08:14:50.954Z,1184
2017-12-16T08:15:16.425Z,1136
2017-12-16T08:15:41.920Z,1080
2017-12-16T08:16:07.421Z,1032
2017-12-16T08:16:32.910Z,1000
2017-12-16T08:16:58.391Z,988
2017-12-16T08:17:23.851Z,1000
2017-12-16T08:17:49.342Z,1012
2017-12-16T08:18:14.841Z,1040
2017-12-16T08:18:40.347Z,1064
2017-12-16T08:19:05.838Z,1104
2017-12-16T08:19:31.335Z,1140
2017-12-16T08:19:56.836Z,1168
2017-12-16T08:20:22.325Z,1192
2017-12-16T08:20:47.801Z,1204
2017-12-16T08:21:13.294Z,1220
2017-12-16T08:21:38.789Z,1220
2017-12-16T08:22:04.299Z,1196
2017-12-16T08:22:29.778Z,1152
2017-12-16T08:22:55.290Z,1112
2017-12-16T08:23:20.809Z,1084
2017-12-16T08:23:46.315Z,1068
2017-12-16T08:24:11.788Z,1060
2017-12-16T08:24:37.273Z,1056
2017-12-16T08:25:02.751Z,1048
2017-12-16T08:25:28.236Z,1044
2017-12-16T08:25:53.710Z,1040
2017-12-16T08:26:19.221Z,1048
2017-12-16T08:26:44.681Z,1052
2017-12-16T08:27:10.166Z,1060
2017-12-16T08:27:35.689Z,1068
2017-12-16T08:28:01.184Z,1100
2017-12-16T08:28:26.698Z,1136
2017-12-16T08:28:52.127Z,1160
2017-12-16T08:29:17.622Z,1188
2017-12-16T08:30:36.751Z,1392
2017-12-16T08:31:02.276Z,1504
2017-12-16T08:31:27.793Z,1556
2017-12-16T08:31:53.310Z,1580
2017-12-16T08:32:18.809Z,1580
2017-12-16T08:33:37.743Z,1628
2017-12-16T08:34:03.213Z,1664
2017-12-16T08:34:28.698Z,1660
2017-12-16T08:34:54.177Z,1684
2017-12-16T08:35:19.687Z,1784
2017-12-16T08:35:45.182Z,1820
2017-12-16T08:36:10.673Z,1856
2017-12-16T08:36:36.147Z,1824
2017-12-16T08:37:01.666Z,1776
2017-12-16T08:37:27.231Z,1728
2017-12-16T08:37:52.690Z,1668
2017-12-16T08:38:18.161Z,1576
2017-12-16T08:38:43.705Z,1456
2017-12-16T08:39:09.164Z,1380
2017-12-16T08:39:34.635Z,1356
2017-12-16T08:40:00.141Z,1348
2017-12-16T08:40:25.652Z,1368
2017-12-16T08:40:51.133Z,1432
2017-12-16T08:41:16.648Z,1420
2017-12-16T08:41:42.134Z,1424
2017-12-16T08:42:07.620Z,1420
2017-12-16T08:42:33.133Z,1412
2017-12-16T08:42:58.638Z,1396
2017-12-16T08:43:24.134Z,1396
2017-12-16T08:44:43.306Z,1396
2017-12-16T08:45:08.796Z,1404
2017-12-16T08:45:34.292Z,1404
2017-12-16T08:45:59.842Z,1408
2017-12-16T08:46:25.260Z,1416
2017-12-16T08:46:50.749Z,1424
2017-12-16T08:47:16.260Z,1428
2017-12-16T08:47:41.746Z,1432
2017-12-16T08:48:07.225Z,1440
2017-12-16T08:48:32.749Z,1444
2017-12-16T08:48:58.232Z,1452
2017-12-16T08:49:23.741Z,1456
2017-12-16T08:49:49.256Z,1464
2017-12-16T08:50:14.773Z,1476
2017-12-16T08:50:40.261Z,1484
2017-12-16T08:51:05.765Z,1492
2017-12-16T08:51:31.252Z,1504
2017-12-16T08:51:56.749Z,1524
2017-12-16T08:52:22.242Z,1532
2017-12-16T08:52:47.758Z,1552
2017-12-16T08:53:13.239Z,1572
2017-12-16T08:53:38.725Z,1588
2017-12-16T08:54:04.213Z,1596
2017-12-16T08:54:29.687Z,1592
2017-12-16T08:54:55.202Z,1596
2017-12-16T08:55:20.715Z,1612
2017-12-16T08:55:46.240Z,1628
2017-12-16T08:56:11.766Z,1660
2017-12-16T08:56:37.266Z,1696
2017-12-16T08:57:02.741Z,1756
2017-12-16T08:57:28.218Z,1816
2017-12-16T08:57:53.732Z,1868
2017-12-16T08:58:19.222Z,1916
2017-12-16T08:58:44.716Z,1992
2017-12-16T08:59:10.209Z,2076
2017-12-16T08:59:35.682Z,2136
2017-12-16T09:00:01.165Z,2172
2017-12-16T09:00:26.650Z,2168
2017-12-16T09:00:52.130Z,2184
2017-12-16T09:01:17.647Z,2216
2017-12-16T09:01:43.119Z,2292
2017-12-16T09:02:08.640Z,2352
2017-12-16T09:02:34.124Z,2396
2017-12-16T09:02:59.611Z,2436
2017-12-16T09:03:25.104Z,2520
2017-12-16T09:03:50.626Z,2556
2017-12-16T09:04:16.111Z,2528
2017-12-16T09:04:41.607Z,2468
2017-12-16T09:05:07.094Z,2420
2017-12-16T09:05:32.575Z,2412
2017-12-16T09:05:58.094Z,2396
2017-12-16T09:06:23.610Z,2336
2017-12-16T09:06:49.146Z,2232
2017-12-16T09:07:14.631Z,2164
2017-12-16T09:07:40.174Z,2128
2017-12-16T09:08:05.634Z,2096
2017-12-16T09:08:31.105Z,2016
2017-12-16T09:08:56.619Z,1976
2017-12-16T09:09:22.108Z,1928
2017-12-16T09:09:47.643Z,1920
2017-12-16T09:10:13.172Z,1924
2017-12-16T09:10:38.644Z,1912
2017-12-16T09:11:04.141Z,1896
2017-12-16T09:11:29.651Z,1904
2017-12-16T09:11:55.166Z,1908
2017-12-16T09:12:20.661Z,1932
2017-12-16T09:12:46.147Z,1916
2017-12-16T09:13:11.645Z,1908
2017-12-16T09:13:37.129Z,1916
2017-12-16T09:14:02.596Z,1920
2017-12-16T09:14:28.114Z,1916
2017-12-16T09:14:53.573Z,1920
2017-12-16T09:15:19.060Z,1940
2017-12-16T09:15:44.576Z,1944
2017-12-16T09:16:10.095Z,1968
2017-12-16T09:16:35.578Z,1988
2017-12-16T09:17:01.068Z,2012
2017-12-16T09:17:26.567Z,2052
2017-12-16T09:17:52.048Z,2076
2017-12-16T09:18:17.541Z,2084
2017-12-16T09:18:43.053Z,2120
2017-12-16T09:19:08.507Z,2152
2017-12-16T09:19:33.965Z,2168
2017-12-16T09:19:59.456Z,2212
2017-12-16T09:20:24.990Z,2228
2017-12-16T09:20:50.458Z,2236
2017-12-16T09:21:15.967Z,2240
2017-12-16T09:21:41.438Z,2212
2017-12-16T09:22:06.933Z,2160
2017-12-16T09:22:32.451Z,2088
2017-12-16T09:22:57.912Z,2012
2017-12-16T09:23:23.398Z,2032
2017-12-16T09:23:48.915Z,2004
2017-12-16T09:24:14.390Z,1932
2017-12-16T09:24:39.894Z,1872
2017-12-16T09:25:05.362Z,1900
2017-12-16T09:25:30.845Z,1876
2017-12-16T09:25:56.292Z,1856
2017-12-16T09:26:21.803Z,1824
2017-12-16T09:26:47.256Z,1836
2017-12-16T09:27:56.155Z,1784
2017-12-16T09:28:21.644Z,1772
2017-12-16T09:28:47.165Z,1760
2017-12-16T09:29:12.638Z,1752
2017-12-16T09:29:38.097Z,1748
2017-12-16T09:30:03.596Z,1748
2017-12-16T09:30:29.072Z,1700
2017-12-16T09:30:54.589Z,1656
2017-12-16T09:31:20.095Z,1676
2017-12-16T09:31:45.616Z,1724
2017-12-16T09:32:11.143Z,1764
2017-12-16T09:32:36.634Z,1800
2017-12-16T09:33:02.140Z,1820
2017-12-16T09:33:27.592Z,1856
2017-12-16T09:33:53.144Z,1888
2017-12-16T09:34:18.616Z,1920
2017-12-16T09:34:44.127Z,1868
2017-12-16T09:35:09.593Z,1948
2017-12-16T09:35:35.082Z,1956
2017-12-16T09:36:00.582Z,2016
2017-12-16T09:36:26.103Z,2140
2017-12-16T09:36:51.631Z,2176
2017-12-16T09:37:17.124Z,2260
2017-12-16T09:37:42.595Z,2336
2017-12-16T09:38:08.170Z,2484
2017-12-16T09:38:33.657Z,2552
2017-12-16T09:38:59.187Z,2572
2017-12-16T09:39:24.665Z,2584
2017-12-16T09:39:50.152Z,2588
2017-12-16T09:40:15.645Z,2580
2017-12-16T09:40:41.145Z,2600
2017-12-16T09:41:06.668Z,2628
2017-12-16T09:41:32.158Z,2716
2017-12-16T09:41:57.643Z,2812
2017-12-16T09:42:23.200Z,2888
2017-12-16T09:42:48.676Z,2788
2017-12-16T09:43:14.165Z,2744
2017-12-16T09:43:39.692Z,2620
2017-12-16T09:44:05.186Z,2484
2017-12-16T09:44:30.689Z,2420
2017-12-16T09:44:56.267Z,2380
2017-12-16T09:45:21.770Z,2516
2017-12-16T09:45:47.254Z,2776
2017-12-16T09:46:12.763Z,3136
2017-12-16T09:46:38.246Z,3504
2017-12-16T09:47:03.853Z,3824
2017-12-16T09:47:29.255Z,4112
2017-12-16T09:47:54.788Z,4128
2017-12-16T09:49:08.596Z,4192
2017-12-16T09:49:34.198Z,3904
2017-12-16T09:49:59.647Z,3612
2017-12-16T09:50:25.149Z,3440
2017-12-16T09:50:50.716Z,3384
2017-12-16T09:51:17.007Z,3360
2017-12-16T09:51:42.514Z,3272
2017-12-16T09:52:07.986Z,3108
2017-12-16T09:52:33.479Z,2940
2017-12-16T09:52:58.967Z,2904
2017-12-16T09:54:18.754Z,3204
2017-12-16T09:54:44.264Z,3440
2017-12-16T09:55:09.744Z,3624
2017-12-16T09:55:35.257Z,3684
2017-12-16T09:56:00.730Z,3632
2017-12-16T09:56:26.211Z,3496
2017-12-16T09:56:51.686Z,3368
2017-12-16T09:57:17.180Z,3160
2017-12-16T09:57:42.682Z,2956
2017-12-16T09:58:08.160Z,2768
2017-12-16T09:58:33.697Z,2600
2017-12-16T09:58:59.148Z,2412
2017-12-16T09:59:24.637Z,2300
2017-12-16T09:59:50.085Z,2188
2017-12-16T10:00:15.597Z,2236
2017-12-16T10:00:41.063Z,2316
2017-12-16T10:01:06.513Z,2316
2017-12-16T10:01:31.995Z,2296
2017-12-16T10:01:57.478Z,2176
2017-12-16T10:02:22.949Z,2140
2017-12-16T10:02:48.420Z,2036
2017-12-16T10:03:13.936Z,2020
2017-12-16T10:03:39.386Z,2056
2017-12-16T10:04:04.873Z,1872
2017-12-16T10:04:30.363Z,1808
2017-12-16T10:04:55.851Z,1728
2017-12-16T10:05:21.353Z,1692
2017-12-16T10:05:46.819Z,1676
2017-12-16T10:06:12.282Z,1680
2017-12-16T10:06:37.825Z,1680
2017-12-16T10:07:03.302Z,1724
2017-12-16T10:07:28.801Z,1760
2017-12-16T10:08:32.410Z,1988
2017-12-16T10:08:57.913Z,2056
2017-12-16T10:09:23.352Z,2144
2017-12-16T10:09:48.815Z,2192
2017-12-16T10:10:14.294Z,2148
2017-12-16T10:10:39.814Z,2124
2017-12-16T10:11:05.311Z,2064
2017-12-16T10:11:30.791Z,2108
2017-12-16T10:11:56.287Z,2304
2017-12-16T10:12:21.765Z,2112
2017-12-16T10:12:47.231Z,1932
2017-12-16T10:13:12.735Z,2000
2017-12-16T10:13:38.215Z,1824
2017-12-16T10:14:03.681Z,1644
2017-12-16T10:14:29.142Z,1564
2017-12-16T10:14:54.633Z,1536
2017-12-16T10:15:20.111Z,1528
2017-12-16T10:15:45.655Z,1524
2017-12-16T10:16:11.111Z,1628
2017-12-16T10:16:36.601Z,1600
2017-12-16T10:17:02.093Z,1576
2017-12-16T10:17:27.543Z,1544
2017-12-16T10:17:53.006Z,1568
2017-12-16T10:18:18.550Z,1660
2017-12-16T10:18:44.037Z,1648
2017-12-16T10:19:09.497Z,1572
2017-12-16T10:19:34.998Z,1588
2017-12-16T10:20:00.503Z,1612
2017-12-16T10:20:26.037Z,1668
2017-12-16T10:20:51.492Z,1752
2017-12-16T10:21:16.968Z,1904
2017-12-16T10:21:42.433Z,2120
2017-12-16T10:22:07.914Z,2292
2017-12-16T10:22:33.408Z,2484
2017-12-16T10:22:59.346Z,2764
2017-12-16T10:23:24.816Z,2984
2017-12-16T10:23:50.386Z,3064
2017-12-16T10:24:15.868Z,3208
2017-12-16T10:24:41.400Z,3420
2017-12-16T10:25:06.864Z,3336
2017-12-16T10:25:32.407Z,3320
2017-12-16T10:25:57.885Z,3388
2017-12-16T10:26:23.354Z,3144
2017-12-16T10:26:48.844Z,3164
2017-12-16T10:27:14.350Z,3484
2017-12-16T10:27:39.862Z,3952
2017-12-16T10:28:05.349Z,4308
2017-12-16T10:28:30.823Z,4400
2017-12-16T10:29:54.821Z,4092
2017-12-16T10:30:20.316Z,3844
2017-12-16T10:30:45.803Z,3728
2017-12-16T10:31:11.311Z,3732
2017-12-16T10:31:36.800Z,3784
2017-12-16T10:32:02.273Z,3648
2017-12-16T10:32:27.736Z,3400
2017-12-16T10:32:53.211Z,3280
2017-12-16T10:33:18.716Z,3232
2017-12-16T10:33:44.192Z,3140
2017-12-16T10:34:09.682Z,3112
2017-12-16T10:34:35.185Z,3272
2017-12-16T10:35:00.674Z,3504
2017-12-16T10:36:15.476Z,4328
2017-12-16T10:36:40.965Z,4204
2017-12-16T10:37:06.478Z,3948
2017-12-16T10:37:31.948Z,3708
2017-12-16T10:37:57.477Z,3580
2017-12-16T10:38:22.949Z,3536
2017-12-16T10:38:48.457Z,3424
2017-12-16T10:39:13.936Z,3228
2017-12-16T10:39:39.483Z,3132
2017-12-16T10:40:04.951Z,3164
2017-12-16T10:40:30.437Z,3384
2017-12-16T10:41:34.032Z,4140
2017-12-16T10:41:59.523Z,4384
2017-12-16T10:42:25.014Z,4176
2017-12-16T10:42:50.503Z,3916
2017-12-16T10:43:15.982Z,3940
2017-12-16T10:43:41.472Z,4008
2017-12-16T10:44:06.937Z,4000
2017-12-16T10:44:32.388Z,3964
2017-12-16T10:44:57.871Z,3860
2017-12-16T10:45:23.359Z,3608
2017-12-16T10:45:48.825Z,3316
2017-12-16T10:47:02.595Z,2776
2017-12-16T10:47:28.088Z,2680
2017-12-16T10:47:53.570Z,2596
2017-12-16T10:48:19.077Z,2548
2017-12-16T10:48:44.576Z,2484
2017-12-16T10:49:10.058Z,2452
2017-12-16T10:49:35.534Z,2424
2017-12-16T10:50:00.984Z,2416
2017-12-16T10:50:26.497Z,2412
2017-12-16T10:50:51.971Z,2436
2017-12-16T10:51:17.451Z,2440
2017-12-16T10:51:42.959Z,2400
2017-12-16T10:52:08.445Z,2364
2017-12-16T10:52:33.926Z,2324
2017-12-16T10:52:59.420Z,2360
2017-12-16T10:53:24.876Z,2416
2017-12-16T10:53:50.329Z,2552
2017-12-16T10:54:15.817Z,2660
2017-12-16T10:54:41.336Z,2692
2017-12-16T10:55:06.822Z,2608
2017-12-16T10:55:32.349Z,2464
2017-12-16T10:55:57.804Z,2304
2017-12-16T10:56:23.273Z,2168
2017-12-16T10:56:48.740Z,2088
2017-12-16T10:57:14.208Z,2056
2017-12-16T10:57:39.692Z,2092
2017-12-16T10:58:05.171Z,2144
2017-12-16T10:58:30.622Z,2220
2017-12-16T10:58:56.120Z,2304
2017-12-16T10:59:21.572Z,2372
2017-12-16T10:59:47.023Z,2476
2017-12-16T11:00:12.532Z,2568
2017-12-16T11:00:37.999Z,2664
2017-12-16T11:01:03.473Z,2788
2017-12-16T11:01:28.983Z,2964
2017-12-16T11:01:54.481Z,3088
2017-12-16T11:02:19.966Z,3144
2017-12-16T11:02:45.416Z,3096
2017-12-16T11:03:10.900Z,2944
2017-12-16T11:03:36.386Z,2856
2017-12-16T11:04:01.861Z,2900
2017-12-16T11:04:27.524Z,3028
2017-12-16T11:04:52.984Z,3164
2017-12-16T11:05:18.462Z,3292
2017-12-16T11:05:43.984Z,3332
2017-12-16T11:06:09.535Z,3252
2017-12-16T11:06:35.031Z,3116
2017-12-16T11:07:00.473Z,3036
2017-12-16T11:07:25.971Z,3004
2017-12-16T11:07:51.469Z,2988
2017-12-16T11:08:16.943Z,2968
2017-12-16T11:08:42.491Z,2968
2017-12-16T11:09:08.247Z,2892
2017-12-16T11:09:33.680Z,2816
2017-12-16T11:09:59.175Z,2784
2017-12-16T11:10:24.651Z,2656
2017-12-16T11:10:50.124Z,2472
2017-12-16T11:11:15.565Z,2328
2017-12-16T11:11:41.080Z,2252
2017-12-16T11:12:06.522Z,2276
2017-12-16T11:12:32.015Z,2264
2017-12-16T11:12:57.472Z,2280
2017-12-16T11:13:23.054Z,2324
2017-12-16T11:13:48.463Z,2344
2017-12-16T11:14:13.935Z,2400
2017-12-16T11:14:39.406Z,2380
2017-12-16T11:15:04.906Z,2356
2017-12-16T11:15:30.367Z,2396
2017-12-16T11:15:55.843Z,2512
2017-12-16T11:16:21.298Z,2648